Time;durP1;ratioP1;P1;durP2;ratioP2;P2;SDS_P1;SDS_P2;PMS_P1;PMS_P2;Temp;Humidity;BMP_temperature;BMP_pressure;BME280_temperature;BME280_humidity;BME280_pressure;Samples;Min_cycle;Max_cycle;Signal;HPM_P1;HPM_P2
2020/12/29 00:00:10;;;;;;;2.17;1.70;;;1.10;95.50;;;;;;5003152;28;20235;-83
2020/12/29 00:02:37;;;;;;;4.63;2.10;;;1.20;95.30;;;;;;5003980;28;20238;-83
2020/12/29 00:05:03;;;;;;;3.03;2.20;;;1.10;95.60;;;;;;4997984;28;20231;-82
2020/12/29 00:07:31;;;;;;;3.50;2.37;;;1.10;95.80;;;;;;4995342;28;20206;-83
2020/12/29 00:09:57;;;;;;;2.53;2.20;;;1.10;95.70;;;;;;4996577;28;20251;-83
2020/12/29 00:12:23;;;;;;;2.97;2.10;;;1.10;95.80;;;;;;5000232;28;20203;-83
2020/12/29 00:14:50;;;;;;;3.90;2.47;;;1.10;95.80;;;;;;5000090;28;20654;-83
2020/12/29 00:17:16;;;;;;;3.37;2.30;;;1.00;95.60;;;;;;4992766;28;20214;-83
2020/12/29 00:19:43;;;;;;;3.60;2.57;;;1.00;95.60;;;;;;4995335;28;20213;-83
2020/12/29 00:22:10;;;;;;;2.63;2.20;;;1.00;95.70;;;;;;4999566;28;20251;-83
2020/12/29 00:24:37;;;;;;;2.77;2.00;;;1.00;95.80;;;;;;4994830;28;20204;-83
2020/12/29 00:27:04;;;;;;;2.37;1.80;;;1.00;95.70;;;;;;4993327;28;20223;-82
2020/12/29 00:29:30;;;;;;;3.10;2.13;;;1.00;95.70;;;;;;5002430;28;20238;-83
2020/12/29 00:31:56;;;;;;;2.23;1.97;;;1.00;95.40;;;;;;4985190;28;20226;-83
2020/12/29 00:34:23;;;;;;;2.23;1.97;;;0.90;95.20;;;;;;4995605;28;20195;-83
2020/12/29 00:36:52;;;;;;;2.10;1.90;;;0.90;95.20;;;;;;4985985;28;20256;-83
2020/12/29 00:39:18;;;;;;;3.30;1.90;;;0.80;95.00;;;;;;5006240;28;20217;-83
2020/12/29 00:41:45;;;;;;;2.53;2.10;;;0.90;95.40;;;;;;5004241;28;20235;-83
2020/12/29 00:44:12;;;;;;;2.93;2.10;;;0.90;95.50;;;;;;4992821;28;20206;-82
2020/12/29 00:46:38;;;;;;;3.13;2.10;;;1.00;95.30;;;;;;4994185;28;20231;-83
2020/12/29 00:49:05;;;;;;;2.67;1.93;;;1.00;94.90;;;;;;4995512;28;20227;-83
2020/12/29 00:51:31;;;;;;;3.40;2.00;;;1.00;94.70;;;;;;4998386;28;20661;-83
2020/12/29 00:53:57;;;;;;;2.37;2.00;;;1.00;94.20;;;;;;5000506;28;20203;-83
2020/12/29 00:56:24;;;;;;;2.40;1.80;;;1.00;94.20;;;;;;4994480;28;20236;-83
2020/12/29 00:58:51;;;;;;;4.53;2.40;;;1.00;94.20;;;;;;4991097;28;20718;-82
2020/12/29 01:01:17;;;;;;;3.03;2.33;;;1.10;94.50;;;;;;4995530;28;20720;-84
2020/12/29 01:03:44;;;;;;;4.60;2.60;;;1.10;93.90;;;;;;5002754;28;20221;-83
2020/12/29 01:06:10;;;;;;;2.60;1.90;;;1.20;94.10;;;;;;4993813;28;20229;-83
2020/12/29 01:08:36;;;;;;;3.17;2.30;;;1.10;94.20;;;;;;4986323;28;20226;-83
2020/12/29 01:11:03;;;;;;;3.27;2.20;;;1.10;94.20;;;;;;4991325;28;20237;-83
2020/12/29 01:13:29;;;;;;;2.33;1.80;;;1.00;94.20;;;;;;4991002;28;20598;-83
2020/12/29 01:15:57;;;;;;;2.40;1.90;;;1.00;94.20;;;;;;5000039;28;20263;-83
2020/12/29 01:18:23;;;;;;;2.93;1.87;;;1.10;94.00;;;;;;4996448;28;20255;-82
2020/12/29 01:20:50;;;;;;;2.00;1.63;;;1.10;94.20;;;;;;4997232;28;20254;-82
2020/12/29 01:23:17;;;;;;;2.37;1.67;;;1.10;93.70;;;;;;4995570;28;20198;-82
2020/12/29 01:25:43;;;;;;;2.00;1.80;;;1.00;93.60;;;;;;4997663;28;20231;-82
2020/12/29 01:28:10;;;;;;;2.23;1.80;;;1.10;93.40;;;;;;4994618;28;20210;-84
2020/12/29 01:30:37;;;;;;;1.67;1.57;;;1.20;93.30;;;;;;4989291;28;20363;-83
2020/12/29 01:33:05;;;;;;;2.27;1.60;;;1.20;93.20;;;;;;4991081;28;20552;-82
2020/12/29 01:35:31;;;;;;;1.70;1.50;;;1.20;93.10;;;;;;4987748;28;20298;-83
2020/12/29 01:37:58;;;;;;;1.90;1.50;;;1.20;93.10;;;;;;4997605;28;20203;-83
2020/12/29 01:40:24;;;;;;;2.13;1.80;;;1.20;93.10;;;;;;5002568;28;20223;-83
2020/12/29 01:42:51;;;;;;;2.47;2.03;;;1.20;93.20;;;;;;4999279;28;20207;-82
2020/12/29 01:45:18;;;;;;;1.77;1.67;;;1.20;93.40;;;;;;4982386;28;20232;-83
2020/12/29 01:47:46;;;;;;;2.40;1.70;;;1.20;93.80;;;;;;5002875;28;20204;-82
2020/12/29 01:50:14;;;;;;;2.27;1.87;;;1.20;93.80;;;;;;5008659;28;20640;-83
2020/12/29 01:52:40;;;;;;;2.20;1.70;;;1.20;93.90;;;;;;4995975;28;20200;-83
2020/12/29 01:55:08;;;;;;;2.20;2.00;;;1.30;93.90;;;;;;4983963;28;21015;-82
2020/12/29 01:57:36;;;;;;;2.17;1.93;;;1.30;93.70;;;;;;4995901;28;20235;-83
2020/12/29 02:00:06;;;;;;;2.80;1.80;;;1.20;94.00;;;;;;5001128;28;20249;-84
2020/12/29 02:02:32;;;;;;;1.83;1.60;;;1.10;94.20;;;;;;5001507;28;20207;-83
2020/12/29 02:04:59;;;;;;;2.30;1.97;;;1.00;94.20;;;;;;4989637;28;20255;-82
2020/12/29 02:07:27;;;;;;;2.60;1.97;;;1.00;94.20;;;;;;4990281;28;20210;-83
2020/12/29 02:09:54;;;;;;;2.50;1.90;;;1.00;94.30;;;;;;4997222;28;20630;-84
2020/12/29 02:12:22;;;;;;;1.70;1.60;;;1.00;94.30;;;;;;5006387;28;20213;-82
2020/12/29 02:14:49;;;;;;;2.33;1.80;;;0.90;94.70;;;;;;5013325;28;20205;-83
2020/12/29 02:17:15;;;;;;;1.50;1.40;;;0.70;95.30;;;;;;5008486;28;20207;-83
2020/12/29 02:19:42;;;;;;;1.80;1.70;;;0.70;95.90;;;;;;5021606;28;20208;-83
2020/12/29 02:22:08;;;;;;;1.77;1.50;;;0.80;95.90;;;;;;5007147;28;20198;-82
2020/12/29 02:24:36;;;;;;;1.50;1.40;;;0.70;95.80;;;;;;5002166;28;20221;-83
2020/12/29 02:27:03;;;;;;;3.37;1.70;;;0.70;95.90;;;;;;5005367;28;20253;-83
2020/12/29 02:29:32;;;;;;;1.30;1.20;;;0.70;95.90;;;;;;5010134;28;20342;-83
2020/12/29 02:31:59;;;;;;;1.30;1.20;;;0.70;95.80;;;;;;5015397;28;20344;-83
2020/12/29 02:34:26;;;;;;;1.40;1.30;;;0.80;95.80;;;;;;5009186;28;20202;-82
2020/12/29 02:36:53;;;;;;;1.30;1.20;;;0.90;96.00;;;;;;4992583;28;20231;-82
2020/12/29 02:39:20;;;;;;;1.50;1.27;;;1.00;95.70;;;;;;4995264;28;20210;-83
2020/12/29 02:41:47;;;;;;;1.60;1.50;;;1.00;95.50;;;;;;5007772;28;20233;-82
2020/12/29 02:44:20;;;;;;;1.30;1.13;;;1.00;95.30;;;;;;5001251;28;20209;-82
2020/12/29 02:46:48;;;;;;;1.37;1.27;;;1.00;95.30;;;;;;4998054;28;20281;-83
2020/12/29 02:49:15;;;;;;;2.17;1.40;;;1.10;95.20;;;;;;5003957;28;20237;-83
2020/12/29 02:51:41;;;;;;;1.40;1.30;;;1.10;95.20;;;;;;5021498;28;20226;-84
2020/12/29 02:54:08;;;;;;;1.27;1.17;;;1.00;95.30;;;;;;5004918;28;20210;-83
2020/12/29 02:56:34;;;;;;;1.20;1.07;;;1.00;95.50;;;;;;5007601;28;20220;-83
2020/12/29 02:59:02;;;;;;;1.10;1.00;;;1.10;95.60;;;;;;5003024;28;20636;-83
2020/12/29 03:01:28;;;;;;;1.30;1.20;;;1.20;95.10;;;;;;5007466;28;20227;-83
2020/12/29 03:03:55;;;;;;;1.13;1.03;;;1.30;94.70;;;;;;5004207;28;20286;-82
2020/12/29 03:06:22;;;;;;;1.10;1.00;;;1.40;94.80;;;;;;5020507;28;20757;-83
2020/12/29 03:08:49;;;;;;;1.20;1.10;;;1.50;94.30;;;;;;5002796;28;20615;-83
2020/12/29 03:11:15;;;;;;;1.20;1.10;;;1.60;94.50;;;;;;5005981;28;20774;-83
2020/12/29 03:13:42;;;;;;;1.30;1.20;;;1.70;94.40;;;;;;5004749;28;20256;-84
2020/12/29 03:16:09;;;;;;;1.37;1.27;;;1.70;94.40;;;;;;5005297;28;20601;-83
2020/12/29 03:18:35;;;;;;;1.10;1.10;;;1.70;94.10;;;;;;5001015;28;20651;-82
2020/12/29 03:21:02;;;;;;;1.20;1.10;;;1.60;94.40;;;;;;4986067;28;20311;-83
2020/12/29 03:23:28;;;;;;;1.50;1.40;;;1.60;94.40;;;;;;4994843;28;20235;-83
2020/12/29 03:25:54;;;;;;;2.80;1.23;;;1.70;94.40;;;;;;4996087;28;20767;-83
2020/12/29 03:28:21;;;;;;;1.50;1.40;;;1.60;94.40;;;;;;4997683;28;20201;-83
2020/12/29 03:30:47;;;;;;;1.50;1.30;;;1.50;94.30;;;;;;5010439;28;20231;-83
2020/12/29 03:33:15;;;;;;;1.40;1.30;;;1.30;94.30;;;;;;5001298;28;20233;-83
2020/12/29 03:35:42;;;;;;;1.93;1.20;;;1.30;94.30;;;;;;5005614;28;20299;-83
2020/12/29 03:38:08;;;;;;;1.23;1.13;;;1.20;94.30;;;;;;4992211;28;20235;-83
2020/12/29 03:40:35;;;;;;;0.93;0.93;;;1.10;94.30;;;;;;4997890;28;20235;-84
2020/12/29 03:43:01;;;;;;;1.03;1.03;;;1.10;94.60;;;;;;5000466;28;20202;-83
2020/12/29 03:45:27;;;;;;;1.03;1.03;;;1.00;94.90;;;;;;4997081;28;20230;-82
2020/12/29 03:47:54;;;;;;;1.30;1.20;;;1.00;95.10;;;;;;5000292;28;20207;-83
2020/12/29 03:50:21;;;;;;;1.33;1.23;;;1.00;95.00;;;;;;5006414;28;20231;-83
2020/12/29 03:52:47;;;;;;;2.23;1.30;;;1.00;95.10;;;;;;5001266;28;20203;-83
2020/12/29 03:55:14;;;;;;;1.33;1.23;;;1.00;95.30;;;;;;4991606;28;20226;-83
2020/12/29 03:57:40;;;;;;;1.33;1.20;;;1.00;95.20;;;;;;4997466;28;20203;-83
2020/12/29 04:00:06;;;;;;;2.07;1.20;;;0.90;95.20;;;;;;4992600;28;20736;-83
2020/12/29 04:02:33;;;;;;;2.03;1.23;;;0.90;95.50;;;;;;5009750;28;20198;-82
2020/12/29 04:04:59;;;;;;;1.87;1.40;;;0.90;95.60;;;;;;5010193;28;20222;-83
2020/12/29 04:07:26;;;;;;;1.13;1.03;;;1.00;95.70;;;;;;5002225;28;20207;-82
2020/12/29 04:09:53;;;;;;;1.30;1.20;;;0.90;95.60;;;;;;5012027;28;20223;-83
2020/12/29 04:12:19;;;;;;;1.80;1.20;;;0.90;95.70;;;;;;5000034;28;20206;-83
2020/12/29 04:14:46;;;;;;;1.27;1.17;;;0.90;95.70;;;;;;5000722;28;20199;-83
2020/12/29 04:17:12;;;;;;;0.90;0.90;;;0.90;95.70;;;;;;5011925;28;20218;-84
2020/12/29 04:19:39;;;;;;;1.20;1.10;;;1.00;95.50;;;;;;4999672;28;20211;-83
2020/12/29 04:22:05;;;;;;;1.17;1.10;;;1.00;95.50;;;;;;5002421;28;20235;-83
2020/12/29 04:24:32;;;;;;;1.23;1.17;;;1.10;95.40;;;;;;4998665;28;20214;-82
2020/12/29 04:26:59;;;;;;;1.40;1.00;;;1.10;95.20;;;;;;4996402;28;20230;-83
2020/12/29 04:29:25;;;;;;;1.33;1.23;;;1.00;95.30;;;;;;4985182;28;20224;-83
2020/12/29 04:31:52;;;;;;;1.30;1.20;;;1.00;95.40;;;;;;4991288;28;20244;-82
2020/12/29 04:34:18;;;;;;;1.27;1.17;;;0.90;95.20;;;;;;4998976;28;20206;-83
2020/12/29 04:36:45;;;;;;;1.43;1.20;;;0.80;95.60;;;;;;5001553;28;20468;-82
2020/12/29 04:39:11;;;;;;;1.17;1.07;;;0.70;96.10;;;;;;5002191;28;20207;-84
2020/12/29 04:41:40;;;;;;;1.33;1.23;;;0.70;96.40;;;;;;5004971;28;20229;-83
2020/12/29 04:44:07;;;;;;;1.20;1.20;;;0.60;96.30;;;;;;5014227;28;20198;-83
2020/12/29 04:46:34;;;;;;;1.60;1.27;;;0.60;96.60;;;;;;5006233;28;20226;-84
2020/12/29 04:49:00;;;;;;;1.10;1.00;;;0.70;96.60;;;;;;5011561;28;20229;-83
2020/12/29 04:51:28;;;;;;;1.40;1.30;;;0.60;96.40;;;;;;5008533;28;20240;-83
2020/12/29 04:53:57;;;;;;;1.10;1.10;;;0.60;96.40;;;;;;5004317;28;20312;-83
2020/12/29 04:56:30;;;;;;;1.40;1.20;;;0.60;96.30;;;;;;5008899;28;20233;-83
2020/12/29 04:58:59;;;;;;;1.87;1.10;;;0.60;96.30;;;;;;5001115;28;20649;-83
2020/12/29 05:01:30;;;;;;;1.30;1.20;;;0.60;96.30;;;;;;4999697;28;20224;-84
2020/12/29 05:03:57;;;;;;;1.30;1.20;;;0.60;96.50;;;;;;5002541;28;20217;-82
2020/12/29 05:06:23;;;;;;;1.37;1.27;;;0.60;96.60;;;;;;4998256;28;20250;-83
2020/12/29 05:08:50;;;;;;;1.67;1.57;;;0.50;96.70;;;;;;5006626;28;20226;-83
2020/12/29 05:11:18;;;;;;;1.53;1.30;;;0.50;96.80;;;;;;5005166;28;20780;-82
2020/12/29 05:13:45;;;;;;;2.10;1.40;;;0.70;96.80;;;;;;5005768;28;20203;-83
2020/12/29 05:16:12;;;;;;;1.40;1.30;;;0.80;96.60;;;;;;4999851;28;20239;-83
2020/12/29 05:18:39;;;;;;;1.20;1.10;;;0.70;96.10;;;;;;5012930;28;20201;-83
2020/12/29 05:21:05;;;;;;;1.37;1.20;;;0.80;96.10;;;;;;4997572;28;20250;-82
2020/12/29 05:23:32;;;;;;;1.40;1.30;;;0.80;95.70;;;;;;4994579;28;20238;-83
2020/12/29 05:25:58;;;;;;;1.20;1.10;;;0.90;95.80;;;;;;5003075;28;20968;-82
2020/12/29 05:28:25;;;;;;;1.27;1.17;;;0.80;95.80;;;;;;5008508;28;20260;-83
2020/12/29 05:30:56;;;;;;;2.67;1.20;;;0.80;96.10;;;;;;5003567;28;20321;-83
2020/12/29 05:33:24;;;;;;;1.37;1.27;;;0.80;96.10;;;;;;4991975;28;20215;-84
2020/12/29 05:35:51;;;;;;;1.43;1.33;;;0.90;95.90;;;;;;4989209;28;20235;-83
2020/12/29 05:38:18;;;;;;;1.30;1.20;;;0.90;95.50;;;;;;5004906;28;20202;-83
2020/12/29 05:40:46;;;;;;;1.37;1.27;;;0.90;95.60;;;;;;4996182;28;20698;-83
2020/12/29 05:43:13;;;;;;;1.23;1.13;;;0.80;95.50;;;;;;4996807;28;20201;-83
2020/12/29 05:45:41;;;;;;;1.30;1.20;;;0.80;95.80;;;;;;5004147;28;20304;-83
2020/12/29 05:48:08;;;;;;;1.20;1.10;;;0.80;95.50;;;;;;4986978;28;20207;-83
2020/12/29 05:50:37;;;;;;;1.53;1.30;;;0.80;95.50;;;;;;4992558;28;20227;-82
2020/12/29 05:53:06;;;;;;;1.40;1.30;;;0.80;95.30;;;;;;4983739;28;20207;-83
2020/12/29 05:55:33;;;;;;;1.10;1.07;;;0.70;95.70;;;;;;4992679;28;20578;-84
2020/12/29 05:58:05;;;;;;;2.00;1.20;;;0.60;95.40;;;;;;4998557;28;20202;-83
2020/12/29 06:00:31;;;;;;;2.00;1.77;;;0.40;95.50;;;;;;4992997;28;20236;-83
2020/12/29 06:02:59;;;;;;;1.40;1.30;;;0.40;95.90;;;;;;4994751;28;20574;-83
2020/12/29 06:05:27;;;;;;;1.47;1.37;;;0.40;96.20;;;;;;4998873;28;20610;-83
2020/12/29 06:07:55;;;;;;;3.07;1.50;;;0.30;96.20;;;;;;5006827;28;20608;-82
2020/12/29 06:10:23;;;;;;;1.40;1.30;;;0.30;96.50;;;;;;5009108;28;20241;-82
2020/12/29 06:12:53;;;;;;;1.73;1.40;;;0.40;96.50;;;;;;4995710;28;20209;-83
2020/12/29 06:15:25;;;;;;;1.37;1.23;;;0.50;96.00;;;;;;5007021;28;20238;-83
2020/12/29 06:17:55;;;;;;;3.07;1.30;;;0.50;95.90;;;;;;5001648;28;20636;-83
2020/12/29 06:20:21;;;;;;;1.47;1.37;;;0.50;95.60;;;;;;5012198;28;20239;-83
2020/12/29 06:22:51;;;;;;;1.43;1.33;;;0.50;95.20;;;;;;5005279;28;20197;-82
2020/12/29 06:25:19;;;;;;;2.07;1.40;;;0.40;95.30;;;;;;5001847;28;20281;-82
2020/12/29 06:27:52;;;;;;;1.90;1.40;;;0.50;95.40;;;;;;4994292;28;20205;-83
2020/12/29 06:30:20;;;;;;;1.80;1.30;;;0.40;95.30;;;;;;4996332;28;20238;-84
2020/12/29 06:32:48;;;;;;;1.13;1.03;;;0.30;95.10;;;;;;4998177;28;20201;-83
2020/12/29 06:35:16;;;;;;;2.27;1.40;;;0.20;95.20;;;;;;4992161;28;20232;-83
2020/12/29 06:37:47;;;;;;;1.77;1.30;;;0.20;95.20;;;;;;4992977;28;20209;-83
2020/12/29 06:40:15;;;;;;;1.40;1.30;;;0.20;95.40;;;;;;4997695;28;20225;-83
2020/12/29 06:42:43;;;;;;;3.37;1.30;;;0.20;95.60;;;;;;4992798;28;20203;-83
2020/12/29 06:45:11;;;;;;;1.30;1.13;;;0.40;95.60;;;;;;5004078;28;20233;-83
2020/12/29 06:47:38;;;;;;;2.17;1.40;;;0.40;95.30;;;;;;4995326;28;20292;-83
2020/12/29 06:50:24;;;;;;;3.43;1.60;;;0.70;96.30;;;;;;5004207;28;20231;-83
2020/12/29 06:52:55;;;;;;;1.90;1.27;;;0.70;94.20;;;;;;4991199;28;20799;-82
2020/12/29 06:55:21;;;;;;;1.87;1.50;;;0.50;94.10;;;;;;4991263;28;20229;-83
2020/12/29 06:57:51;;;;;;;2.00;1.63;;;0.40;94.10;;;;;;4992322;28;20207;-83
2020/12/29 07:00:19;;;;;;;3.20;1.57;;;0.80;94.90;;;;;;4987295;28;20245;-83
2020/12/29 07:02:47;;;;;;;1.97;1.67;;;0.60;94.10;;;;;;4996582;28;20203;-83
2020/12/29 07:05:16;;;;;;;5.33;1.90;;;0.60;94.10;;;;;;5011869;28;20328;-83
2020/12/29 07:07:57;;;;;;;2.03;1.57;;;0.60;93.70;;;;;;4989622;28;20835;-83
2020/12/29 07:10:27;;;;;;;2.17;1.63;;;0.50;94.20;;;;;;5000869;28;20235;-82
2020/12/29 07:12:54;;;;;;;5.90;1.57;;;0.40;94.10;;;;;;4991181;28;20664;-83
2020/12/29 07:15:22;;;;;;;1.67;1.50;;;0.50;94.10;;;;;;5003803;28;20266;-83
2020/12/29 07:17:57;;;;;;;3.43;1.70;;;0.70;94.20;;;;;;5009508;28;20216;-83
2020/12/29 07:20:25;;;;;;;4.80;1.63;;;0.60;93.60;;;;;;5013105;28;20606;-83
2020/12/29 07:23:05;;;;;;;2.03;1.67;;;0.60;93.40;;;;;;4999854;28;20202;-83
2020/12/29 07:25:32;;;;;;;3.27;2.10;;;0.30;93.50;;;;;;4997300;28;20242;-83
2020/12/29 07:28:02;;;;;;;3.27;1.43;;;0.50;94.10;;;;;;5006797;28;20198;-82
2020/12/29 07:30:29;;;;;;;1.67;1.43;;;0.50;93.10;;;;;;4996103;28;20264;-83
2020/12/29 07:33:00;;;;;;;2.53;1.80;;;0.40;93.20;;;;;;4996937;28;20209;-82
2020/12/29 07:35:29;;;;;;;3.87;1.60;;;0.40;93.30;;;;;;5006466;28;20230;-83
2020/12/29 07:37:56;;;;;;;1.53;1.40;;;0.40;94.10;;;;;;5008492;28;20207;-83
2020/12/29 07:40:25;;;;;;;2.03;1.60;;;0.40;93.50;;;;;;4999181;28;20250;-83
2020/12/29 07:42:51;;;;;;;2.20;1.67;;;0.40;93.60;;;;;;4997410;28;20271;-84
2020/12/29 07:45:19;;;;;;;3.13;1.83;;;0.50;94.10;;;;;;4988911;28;20761;-85
2020/12/29 07:47:45;;;;;;;3.23;1.80;;;0.40;93.50;;;;;;4990089;28;20208;-83
2020/12/29 07:50:11;;;;;;;4.63;1.80;;;0.50;93.70;;;;;;4995777;28;20239;-83
2020/12/29 07:52:38;;;;;;;1.93;1.73;;;0.60;94.10;;;;;;4998871;28;20213;-83
2020/12/29 07:55:09;;;;;;;1.47;1.33;;;0.80;93.60;;;;;;4996439;28;20229;-83
2020/12/29 07:57:36;;;;;;;1.80;1.70;;;1.00;93.30;;;;;;5002211;28;20243;-83
2020/12/29 08:00:07;;;;;;;2.33;1.80;;;1.30;93.10;;;;;;5000413;28;20246;-84
2020/12/29 08:02:34;;;;;;;1.57;1.47;;;1.30;91.90;;;;;;4995076;28;20203;-84
2020/12/29 08:05:01;;;;;;;2.50;1.70;;;1.30;92.20;;;;;;5003582;28;20363;-83
2020/12/29 08:07:27;;;;;;;2.30;1.90;;;1.30;92.00;;;;;;4997336;28;20206;-83
2020/12/29 08:09:53;;;;;;;2.87;2.00;;;1.40;92.40;;;;;;4999197;28;20667;-83
2020/12/29 08:12:20;;;;;;;2.33;2.07;;;1.60;92.20;;;;;;5009405;28;20654;-84
2020/12/29 08:14:46;;;;;;;2.20;1.70;;;1.80;91.70;;;;;;4991596;28;20199;-83
2020/12/29 08:17:13;;;;;;;2.60;1.90;;;1.70;86.90;;;;;;4992668;28;20210;-83
2020/12/29 08:19:40;;;;;;;3.17;2.33;;;1.90;87.00;;;;;;5002475;28;20204;-83
2020/12/29 08:22:08;;;;;;;1.80;1.70;;;2.00;87.10;;;;;;5003283;28;20595;-83
2020/12/29 08:24:34;;;;;;;2.37;1.93;;;2.00;87.10;;;;;;4995816;28;20196;-84
2020/12/29 08:27:01;;;;;;;1.80;1.70;;;2.40;87.30;;;;;;5002615;28;20238;-83
2020/12/29 08:29:28;;;;;;;3.33;1.90;;;2.70;85.80;;;;;;4993471;28;20224;-83
2020/12/29 08:32:06;;;;;;;2.03;1.43;;;3.10;84.90;;;;;;4995547;28;20239;-84
2020/12/29 08:34:34;;;;;;;1.60;1.40;;;3.50;81.70;;;;;;5002264;28;20203;-83
2020/12/29 08:37:03;;;;;;;1.40;1.30;;;3.80;80.10;;;;;;5002277;28;20257;-83
2020/12/29 08:39:45;;;;;;;1.30;1.17;;;4.10;79.30;;;;;;5013772;28;20210;-85
2020/12/29 08:42:13;;;;;;;1.10;1.00;;;4.40;74.90;;;;;;4996056;28;20225;-85
2020/12/29 08:44:43;;;;;;;1.47;1.03;;;4.70;69.40;;;;;;5009862;28;20199;-86
2020/12/29 08:47:10;;;;;;;3.93;1.00;;;4.80;69.60;;;;;;5006355;28;20226;-85
2020/12/29 08:49:37;;;;;;;1.30;1.03;;;5.00;69.70;;;;;;4996680;28;20220;-86
2020/12/29 08:52:05;;;;;;;0.93;0.93;;;5.40;66.90;;;;;;5002583;28;20311;-88
2020/12/29 08:54:36;;;;;;;1.00;0.80;;;5.60;63.70;;;;;;4999767;28;20686;-88
2020/12/29 08:57:05;;;;;;;1.10;1.00;;;6.00;61.10;;;;;;4998645;28;20263;-88
2020/12/29 08:59:36;;;;;;;1.05;0.95;;;6.30;60.70;;;;;;5006968;28;20250;-87
2020/12/29 09:02:05;;;;;;;0.90;0.90;;;7.20;58.60;;;;;;4998512;28;20251;-87
2020/12/29 09:04:33;;;;;;;1.80;1.10;;;8.00;51.60;;;;;;5005469;28;20245;-87
2020/12/29 09:07:03;;;;;;;1.10;1.00;;;8.70;48.70;;;;;;5014255;28;20576;-88
2020/12/29 09:09:33;;;;;;;1.42;1.00;;;9.40;47.80;;;;;;5008426;28;20595;-87
2020/12/29 09:12:14;;;;;;;1.25;0.90;;;10.00;42.20;;;;;;5006620;28;20231;-87
2020/12/29 09:14:54;;;;;;;1.35;1.02;;;10.90;41.80;;;;;;4997251;28;20199;-87
2020/12/29 09:17:21;;;;;;;2.65;1.20;;;11.70;37.40;;;;;;4996000;28;20223;-88
2020/12/29 09:20:07;;;;;;;2.58;1.40;;;11.80;37.00;;;;;;5005904;28;20204;-87
2020/12/29 09:22:34;;;;;;;1.65;1.08;;;11.60;37.90;;;;;;5002284;28;20206;-88
2020/12/29 09:25:02;;;;;;;1.10;1.00;;;12.30;36.90;;;;;;5005058;28;20207;-87
2020/12/29 09:27:29;;;;;;;1.10;1.00;;;12.60;34.80;;;;;;5014637;28;20200;-90
2020/12/29 09:29:56;;;;;;;1.00;1.00;;;12.60;34.70;;;;;;4991785;28;20265;-85
2020/12/29 09:32:24;;;;;;;0.80;0.80;;;12.70;35.10;;;;;;5000850;28;20291;-84
2020/12/29 09:34:50;;;;;;;1.13;1.02;;;13.00;34.40;;;;;;5002952;28;20239;-84
2020/12/29 09:37:17;;;;;;;1.10;0.80;;;13.40;33.70;;;;;;5001934;28;20710;-85
2020/12/29 09:39:43;;;;;;;1.67;1.30;;;14.00;34.80;;;;;;5002904;28;20227;-85
2020/12/29 09:42:11;;;;;;;1.20;1.10;;;14.10;31.00;;;;;;5006704;28;20212;-85
2020/12/29 09:44:37;;;;;;;1.10;1.00;;;14.40;31.30;;;;;;5004475;28;20210;-85
2020/12/29 09:47:05;;;;;;;1.15;1.10;;;13.90;31.50;;;;;;5000236;28;20230;-84
2020/12/29 09:49:31;;;;;;;1.52;0.88;;;13.50;32.50;;;;;;5001227;28;20239;-86
2020/12/29 09:51:57;;;;;;;0.90;0.90;;;12.90;32.40;;;;;;5005555;28;20227;-88
2020/12/29 09:54:24;;;;;;;1.00;0.95;;;12.00;34.40;;;;;;4995822;28;20258;-89
2020/12/29 09:56:50;;;;;;;1.20;1.10;;;11.10;36.20;;;;;;4993417;28;20251;-86
2020/12/29 09:59:17;;;;;;;0.88;0.88;;;10.60;37.40;;;;;;5001033;28;20306;-89
2020/12/29 10:01:44;;;;;;;1.77;1.33;;;10.80;39.50;;;;;;4996317;28;20226;-88
2020/12/29 10:04:10;;;;;;;1.10;1.00;;;10.80;38.30;;;;;;4996620;28;20214;-88
2020/12/29 10:06:37;;;;;;;1.73;0.93;;;10.60;38.70;;;;;;4988175;28;20299;-89
2020/12/29 10:09:11;;;;;;;0.98;0.90;;;10.40;39.90;;;;;;4993641;28;20228;-87
2020/12/29 10:11:38;;;;;;;0.98;0.90;;;9.90;41.20;;;;;;5000204;28;20223;-87
2020/12/29 10:14:06;;;;;;;1.60;1.00;;;9.80;41.60;;;;;;4997494;28;20234;-87
2020/12/29 10:16:34;;;;;;;1.27;1.17;;;9.10;43.10;;;;;;4995831;28;20242;-87
2020/12/29 10:19:02;;;;;;;1.20;1.10;;;8.80;44.20;;;;;;5004753;28;20238;-87
2020/12/29 10:21:28;;;;;;;1.05;0.90;;;8.70;45.40;;;;;;5000167;28;20234;-88
2020/12/29 10:23:54;;;;;;;2.35;1.17;;;8.70;44.00;;;;;;4999822;28;20331;-87
2020/12/29 10:26:23;;;;;;;1.30;1.20;;;8.50;45.80;;;;;;4996489;28;20223;-87
2020/12/29 10:28:50;;;;;;;2.45;1.30;;;8.50;47.10;;;;;;4985376;28;20218;-88
2020/12/29 10:31:19;;;;;;;1.05;0.95;;;8.50;46.80;;;;;;4994442;28;20311;-87
2020/12/29 10:33:46;;;;;;;1.30;1.20;;;8.50;47.20;;;;;;4999710;28;20212;-87
2020/12/29 10:36:13;;;;;;;1.70;1.15;;;8.40;47.00;;;;;;5007498;28;20314;-87
2020/12/29 10:38:40;;;;;;;3.50;1.20;;;8.60;47.20;;;;;;5002789;28;20267;-88
2020/12/29 10:41:06;;;;;;;1.13;1.02;;;8.80;45.40;;;;;;5003472;28;20223;-88
2020/12/29 10:43:33;;;;;;;1.20;1.10;;;9.30;44.20;;;;;;5014122;28;20262;-87
2020/12/29 10:46:00;;;;;;;2.60;1.10;;;9.70;43.20;;;;;;5005038;28;20255;-88
2020/12/29 10:48:28;;;;;;;1.20;0.85;;;9.70;42.70;;;;;;5000499;28;20200;-90
2020/12/29 10:50:55;;;;;;;1.25;1.13;;;9.80;42.80;;;;;;5015807;28;20588;-88
2020/12/29 10:53:22;;;;;;;1.42;1.20;;;10.10;40.40;;;;;;4992650;28;20214;-88
2020/12/29 10:55:48;;;;;;;1.52;1.40;;;10.20;39.80;;;;;;4997417;28;20270;-88
2020/12/29 10:58:17;;;;;;;1.80;1.20;;;10.50;40.10;;;;;;5001611;28;20239;-88
2020/12/29 11:00:48;;;;;;;1.40;1.27;;;10.70;38.80;;;;;;5001739;28;20235;-88
2020/12/29 11:03:14;;;;;;;1.65;1.35;;;10.10;40.50;;;;;;4998359;28;20726;-88
2020/12/29 11:05:41;;;;;;;1.40;1.30;;;10.00;41.30;;;;;;5002663;28;20230;-89
2020/12/29 11:08:10;;;;;;;1.27;1.10;;;9.50;42.80;;;;;;5005090;28;20290;-88
2020/12/29 11:10:36;;;;;;;2.05;1.40;;;9.40;44.70;;;;;;5000226;28;20231;-88
2020/12/29 11:13:03;;;;;;;2.08;1.48;;;9.00;46.60;;;;;;4995247;28;20228;-86
2020/12/29 11:15:29;;;;;;;3.72;1.33;;;8.50;45.30;;;;;;4997853;28;20223;-87
2020/12/29 11:17:56;;;;;;;1.48;1.35;;;8.20;46.90;;;;;;5004591;28;20204;-87
2020/12/29 11:20:25;;;;;;;3.33;1.30;;;7.80;47.00;;;;;;4998662;28;20234;-87
2020/12/29 11:22:51;;;;;;;2.65;1.70;;;7.50;50.00;;;;;;4996574;28;20724;-87
2020/12/29 11:25:19;;;;;;;1.27;1.13;;;7.40;49.30;;;;;;5006410;28;20287;-89
2020/12/29 11:27:45;;;;;;;2.95;1.40;;;7.20;51.20;;;;;;4999379;28;20213;-87
2020/12/29 11:30:12;;;;;;;1.88;1.50;;;6.90;51.40;;;;;;4996011;28;20234;-87
2020/12/29 11:32:38;;;;;;;2.97;1.30;;;6.80;51.90;;;;;;5000463;28;20238;-87
2020/12/29 11:35:05;;;;;;;1.77;1.57;;;6.60;54.30;;;;;;4992103;28;20215;-87
2020/12/29 11:37:31;;;;;;;2.15;1.48;;;6.60;55.00;;;;;;4992992;28;20577;-87
2020/12/29 11:39:58;;;;;;;2.63;2.27;;;6.60;56.70;;;;;;4999437;28;20215;-87
2020/12/29 11:42:27;;;;;;;1.43;1.33;;;6.60;55.30;;;;;;5000715;28;20227;-86
2020/12/29 11:44:53;;;;;;;6.63;2.50;;;6.50;56.70;;;;;;4997653;28;20532;-86
2020/12/29 11:47:20;;;;;;;2.73;1.40;;;6.70;55.30;;;;;;4996728;28;20203;-88
2020/12/29 11:49:46;;;;;;;2.67;1.77;;;6.70;55.10;;;;;;4997088;28;20234;-86
2020/12/29 11:52:13;;;;;;;2.87;1.40;;;6.60;57.50;;;;;;4998995;28;20204;-86
2020/12/29 11:54:39;;;;;;;2.10;1.30;;;6.60;56.40;;;;;;4995295;28;20263;-86
2020/12/29 11:57:06;;;;;;;1.60;1.37;;;6.60;57.10;;;;;;5001990;28;20325;-86
2020/12/29 11:59:33;;;;;;;2.67;1.50;;;6.60;57.30;;;;;;4994958;28;20230;-88
2020/12/29 12:02:02;;;;;;;2.90;1.60;;;6.60;56.90;;;;;;4986106;28;20239;-86
2020/12/29 12:04:28;;;;;;;2.60;1.70;;;6.70;56.40;;;;;;5008481;28;20240;-86
2020/12/29 12:06:55;;;;;;;3.37;1.50;;;6.90;56.30;;;;;;4998050;28;20318;-86
2020/12/29 12:09:22;;;;;;;4.43;1.70;;;6.80;55.80;;;;;;5000196;28;20224;-86
2020/12/29 12:11:48;;;;;;;2.53;1.53;;;7.20;55.30;;;;;;4997471;28;20785;-86
2020/12/29 12:14:15;;;;;;;2.10;1.37;;;7.30;54.20;;;;;;5017955;28;20223;-88
2020/12/29 12:16:43;;;;;;;2.77;1.37;;;7.10;54.90;;;;;;5011888;28;20243;-87
2020/12/29 12:19:09;;;;;;;2.10;1.60;;;7.10;55.60;;;;;;5008989;28;20303;-89
2020/12/29 12:21:36;;;;;;;3.67;1.20;;;7.00;55.70;;;;;;4985317;28;20698;-89
2020/12/29 12:24:03;;;;;;;1.40;1.10;;;6.90;55.70;;;;;;4999156;28;20200;-88
2020/12/29 12:26:30;;;;;;;4.23;1.20;;;7.00;57.30;;;;;;5001356;28;20303;-88
2020/12/29 12:28:57;;;;;;;2.40;1.30;;;7.00;55.50;;;;;;4988240;28;20584;-88
2020/12/29 12:31:23;;;;;;;1.27;1.17;;;6.90;56.70;;;;;;4991604;28;20232;-87
2020/12/29 12:33:51;;;;;;;2.10;1.30;;;6.90;57.10;;;;;;5004781;28;20204;-88
2020/12/29 12:36:18;;;;;;;2.70;1.00;;;6.80;57.90;;;;;;4998270;28;20236;-87
2020/12/29 12:38:45;;;;;;;2.83;1.20;;;6.80;57.20;;;;;;4995013;28;20206;-85
2020/12/29 12:41:11;;;;;;;4.43;1.10;;;6.80;57.40;;;;;;4993460;28;20232;-85
2020/12/29 12:43:38;;;;;;;4.57;1.43;;;6.80;57.30;;;;;;4994359;28;20243;-85
2020/12/29 12:46:06;;;;;;;1.73;1.20;;;6.70;56.70;;;;;;5008627;28;20690;-87
2020/12/29 12:48:33;;;;;;;2.03;1.00;;;6.80;56.80;;;;;;4994535;28;20210;-89
2020/12/29 12:51:00;;;;;;;3.27;1.43;;;6.90;56.80;;;;;;5000377;28;20696;-85
2020/12/29 12:53:27;;;;;;;3.73;1.30;;;7.00;57.00;;;;;;4998833;28;20556;-85
2020/12/29 12:55:53;;;;;;;2.37;1.50;;;6.90;56.80;;;;;;4991472;28;20303;-88